Time,TemperatureF,DewpointF,PressureIn,WindDirection,WindDirectionDegrees,WindSpeedMPH,WindSpeedGustMPH,Humidity,HourlyPrecipIn,Conditions,Clouds,dailyrainin,SoftwareType,DateUTC
2013-10-15 00:05:00,51.6,50.0,30.26,East,97,1.0,1.0,95,0.00,,,0.00,weatherlink.com 1.10,2013-10-15 04:05:00,
2013-10-15 00:20:00,51.5,50.0,30.27,East,97,1.0,1.0,95,0.00,,,0.00,weatherlink.com 1.10,2013-10-15 04:20:00,
2013-10-15 00:35:00,51.4,50.0,30.26,East,97,0.0,1.0,95,0.00,,,0.00,weatherlink.com 1.10,2013-10-15 04:35:00,
2013-10-15 00:51:00,51.4,50.0,30.27,East,97,0.0,1.0,95,0.00,,,0.00,weatherlink.com 1.10,2013-10-15 04:51:00,
2013-10-15 01:06:00,51.0,50.0,30.26,East,96,1.0,1.0,95,0.00,,,0.00,weatherlink.com 1.10,2013-10-15 05:06:00,
2013-10-15 01:21:00,50.3,49.0,30.26,East,96,0.0,0.0,95,0.00,,,0.00,weatherlink.com 1.10,2013-10-15 05:21:00,
2013-10-15 01:36:00,49.6,48.0,30.26,East,96,0.0,1.0,95,0.00,,,0.00,weatherlink.com 1.10,2013-10-15 05:36:00,
2013-10-15 01:51:00,48.8,48.0,30.26,East,97,0.0,0.0,95,0.00,,,0.00,weatherlink.com 1.10,2013-10-15 05:51:00,
2013-10-15 02:06:00,48.9,48.0,30.26,East,96,0.0,0.0,96,0.00,,,0.00,weatherlink.com 1.10,2013-10-15 06:06:00,
2013-10-15 02:21:00,49.5,48.0,30.25,ENE,70,0.0,1.0,96,0.00,,,0.00,weatherlink.com 1.10,2013-10-15 06:21:00,
2013-10-15 02:36:00,49.0,48.0,30.25,NNW,343,0.0,1.0,96,0.00,,,0.00,weatherlink.com 1.10,2013-10-15 06:36:00,
2013-10-15 02:51:00,48.4,47.0,30.25,NNW,343,0.0,1.0,96,0.00,,,0.00,weatherlink.com 1.10,2013-10-15 06:51:00,
2013-10-15 03:06:00,48.8,48.0,30.25,NNW,342,0.0,1.0,96,0.00,,,0.00,weatherlink.com 1.10,2013-10-15 07:06:00,
2013-10-15 03:21:00,48.7,48.0,30.25,NNW,343,0.0,1.0,96,0.00,,,0.00,weatherlink.com 1.10,2013-10-15 07:21:00,
2013-10-15 03:36:00,48.8,48.0,30.25,NNW,342,0.0,1.0,96,0.00,,,0.00,weatherlink.com 1.10,2013-10-15 07:36:00,
2013-10-15 03:51:00,48.4,47.0,30.26,NNW,343,0.0,1.0,96,0.00,,,0.00,weatherlink.com 1.10,2013-10-15 07:51:00,
2013-10-15 04:06:00,48.3,47.0,30.25,NNW,343,0.0,1.0,96,0.00,,,0.00,weatherlink.com 1.10,2013-10-15 08:06:00,
2013-10-15 04:21:00,48.2,47.0,30.25,NNW,343,0.0,0.0,96,0.00,,,0.00,weatherlink.com 1.10,2013-10-15 08:21:00,
2013-10-15 04:51:00,47.5,47.0,30.25,NNW,342,0.0,1.0,96,0.00,,,0.00,weatherlink.com 1.10,2013-10-15 08:51:00,
2013-10-15 05:06:00,47.6,47.0,30.25,SE,139,0.0,1.0,96,0.00,,,0.00,weatherlink.com 1.10,2013-10-15 09:06:00,
2013-10-15 05:21:00,48.2,47.0,30.24,ENE,62,0.0,1.0,96,0.00,,,0.00,weatherlink.com 1.10,2013-10-15 09:21:00,
2013-10-15 05:36:00,48.8,48.0,30.24,ENE,68,0.0,1.0,96,0.00,,,0.00,weatherlink.com 1.10,2013-10-15 09:36:00,
2013-10-15 05:51:00,49.0,48.0,30.25,ENE,68,0.0,1.0,96,0.00,,,0.00,weatherlink.com 1.10,2013-10-15 09:51:00,
2013-10-15 06:06:00,49.2,48.0,30.25,ENE,68,0.0,1.0,96,0.00,,,0.00,weatherlink.com 1.10,2013-10-15 10:06:00,
2013-10-15 06:21:00,49.3,48.0,30.24,ENE,68,1.0,1.0,96,0.00,,,0.00,weatherlink.com 1.10,2013-10-15 10:21:00,
2013-10-15 06:36:00,49.3,48.0,30.24,ESE,110,1.0,1.0,96,0.00,,,0.00,weatherlink.com 1.10,2013-10-15 10:36:00,
2013-10-15 06:51:00,49.2,48.0,30.24,SE,126,1.0,1.0,96,0.00,,,0.00,weatherlink.com 1.10,2013-10-15 10:51:00,
2013-10-15 07:06:00,49.3,48.0,30.24,SE,125,1.0,1.0,96,0.00,,,0.00,weatherlink.com 1.10,2013-10-15 11:06:00,
2013-10-15 07:21:00,49.2,48.0,30.24,SE,125,0.0,1.0,96,0.00,,,0.00,weatherlink.com 1.10,2013-10-15 11:21:00,
2013-10-15 07:36:00,49.4,48.0,30.25,ESE,121,0.0,1.0,96,0.00,,,0.00,weatherlink.com 1.10,2013-10-15 11:36:00,
2013-10-15 07:51:00,49.6,49.0,30.25,ESE,122,0.0,0.0,96,0.00,,,0.00,weatherlink.com 1.10,2013-10-15 11:51:00,
2013-10-15 08:06:00,49.6,48.0,30.25,ESE,121,1.0,1.0,95,0.00,,,0.00,weatherlink.com 1.10,2013-10-15 12:06:00,
2013-10-15 08:21:00,49.6,48.0,30.25,ESE,121,0.0,1.0,95,0.00,,,0.00,weatherlink.com 1.10,2013-10-15 12:21:00,
2013-10-15 08:36:00,49.6,48.0,30.26,ESE,121,1.0,1.0,95,0.00,,,0.00,weatherlink.com 1.10,2013-10-15 12:36:00,
2013-10-15 08:51:00,50.5,49.0,30.25,ESE,121,0.0,0.0,96,0.00,,,0.00,weatherlink.com 1.10,2013-10-15 12:51:00,
2013-10-15 09:06:00,51.4,50.0,30.26,East,97,0.0,1.0,96,0.00,,,0.00,weatherlink.com 1.10,2013-10-15 13:06:00,
2013-10-15 09:21:00,52.2,51.0,30.26,East,97,0.0,1.0,94,0.00,,,0.00,weatherlink.com 1.10,2013-10-15 13:21:00,
2013-10-15 09:36:00,53.0,51.0,30.26,SW,225,0.0,1.0,92,0.00,,,0.00,weatherlink.com 1.10,2013-10-15 13:36:00,
2013-10-15 09:51:00,53.0,51.0,30.26,SW,225,0.0,1.0,91,0.00,,,0.00,weatherlink.com 1.10,2013-10-15 13:51:00,
2013-10-15 10:06:00,53.0,51.0,30.26,SW,226,0.0,1.0,91,0.00,,,0.00,weatherlink.com 1.10,2013-10-15 14:06:00,
2013-10-15 10:21:00,53.4,51.0,30.26,West,263,0.0,1.0,90,0.00,,,0.00,weatherlink.com 1.10,2013-10-15 14:21:00,
2013-10-15 10:36:00,54.5,51.0,30.25,WNW,283,0.0,2.0,89,0.00,,,0.00,weatherlink.com 1.10,2013-10-15 14:36:00,
2013-10-15 10:51:00,55.7,52.0,30.25,WSW,246,0.0,1.0,88,0.00,,,0.00,weatherlink.com 1.10,2013-10-15 14:51:00,
2013-10-15 11:06:00,57.0,51.0,30.24,NE,52,0.0,2.0,81,0.00,,,0.00,weatherlink.com 1.10,2013-10-15 15:06:00,
2013-10-15 11:22:00,57.6,52.0,30.24,SSW,197,0.0,1.0,81,0.00,,,0.00,weatherlink.com 1.10,2013-10-15 15:22:00,
2013-10-15 11:37:00,58.0,53.0,30.23,SSW,196,0.0,1.0,83,0.00,,,0.00,weatherlink.com 1.10,2013-10-15 15:37:00,
2013-10-15 11:52:00,58.2,52.0,30.23,NW,315,0.0,1.0,80,0.00,,,0.00,weatherlink.com 1.10,2013-10-15 15:52:00,
2013-10-15 12:07:00,58.8,52.0,30.22,WNW,301,2.0,2.0,79,0.00,,,0.00,weatherlink.com 1.10,2013-10-15 16:07:00,
2013-10-15 12:22:00,58.8,52.0,30.22,NW,317,0.0,2.0,78,0.00,,,0.00,weatherlink.com 1.10,2013-10-15 16:22:00,
2013-10-15 12:37:00,58.9,53.0,30.21,SW,225,0.0,2.0,81,0.00,,,0.00,weatherlink.com 1.10,2013-10-15 16:37:00,
2013-10-15 12:52:00,60.0,54.0,30.20,WSW,253,0.0,3.0,80,0.00,,,0.00,weatherlink.com 1.10,2013-10-15 16:52:00,
2013-10-15 13:07:00,59.7,55.0,30.20,SSW,210,0.0,3.0,84,0.00,,,0.00,weatherlink.com 1.10,2013-10-15 17:07:00,
2013-10-15 13:22:00,59.5,54.0,30.20,WSW,249,1.0,3.0,82,0.00,,,0.00,weatherlink.com 1.10,2013-10-15 17:22:00,
2013-10-15 13:37:00,58.1,54.0,30.19,NW,315,2.0,4.0,85,0.00,,,0.00,weatherlink.com 1.10,2013-10-15 17:37:00,
2013-10-15 13:52:00,58.5,54.0,30.18,NW,307,1.0,4.0,85,0.00,,,0.00,weatherlink.com 1.10,2013-10-15 17:52:00,
2013-10-15 14:07:00,59.0,54.0,30.18,NW,305,0.0,3.0,83,0.00,,,0.00,weatherlink.com 1.10,2013-10-15 18:07:00,
2013-10-15 14:22:00,58.9,53.0,30.17,WNW,296,0.0,4.0,82,0.00,,,0.00,weatherlink.com 1.10,2013-10-15 18:22:00,
2013-10-15 14:37:00,58.6,54.0,30.17,WSW,255,0.0,1.0,84,0.00,,,0.00,weatherlink.com 1.10,2013-10-15 18:37:00,
2013-10-15 14:52:00,58.3,53.0,30.16,West,265,0.0,1.0,83,0.00,,,0.00,weatherlink.com 1.10,2013-10-15 18:52:00,
2013-10-15 15:07:00,58.4,53.0,30.16,NNW,347,0.0,1.0,83,0.00,,,0.00,weatherlink.com 1.10,2013-10-15 19:07:00,
2013-10-15 15:22:00,59.1,54.0,30.15,NNW,347,0.0,1.0,83,0.00,,,0.00,weatherlink.com 1.10,2013-10-15 19:22:00,
2013-10-15 15:37:00,59.0,54.0,30.15,WNW,285,0.0,1.0,82,0.00,,,0.00,weatherlink.com 1.10,2013-10-15 19:37:00,
2013-10-15 15:52:00,58.1,54.0,30.15,West,277,0.0,1.0,86,0.00,,,0.00,weatherlink.com 1.10,2013-10-15 19:52:00,
2013-10-15 16:07:00,57.1,53.0,30.15,WNW,297,0.0,2.0,87,0.00,,,0.00,weatherlink.com 1.10,2013-10-15 20:07:00,
2013-10-15 16:22:00,56.7,53.0,30.16,SW,225,0.0,0.0,88,0.00,,,0.00,weatherlink.com 1.10,2013-10-15 20:22:00,
2013-10-15 16:37:00,57.0,54.0,30.16,West,276,0.0,2.0,88,0.00,,,0.00,weatherlink.com 1.10,2013-10-15 20:37:00,
2013-10-15 16:52:00,57.1,54.0,30.16,West,280,0.0,1.0,88,0.00,,,0.00,weatherlink.com 1.10,2013-10-15 20:52:00,
2013-10-15 17:07:00,57.3,54.0,30.15,NW,316,0.0,1.0,88,0.00,,,0.00,weatherlink.com 1.10,2013-10-15 21:07:00,
2013-10-15 17:22:00,57.3,54.0,30.14,NW,316,0.0,1.0,88,0.00,,,0.00,weatherlink.com 1.10,2013-10-15 21:22:00,
2013-10-15 17:37:00,56.8,53.0,30.14,NW,316,0.0,0.0,88,0.00,,,0.00,weatherlink.com 1.10,2013-10-15 21:37:00,
2013-10-15 17:52:00,55.8,53.0,30.14,NW,316,0.0,1.0,90,0.00,,,0.00,weatherlink.com 1.10,2013-10-15 21:52:00,
2013-10-15 18:07:00,55.3,53.0,30.14,East,94,1.0,2.0,90,0.00,,,0.00,weatherlink.com 1.10,2013-10-15 22:07:00,
2013-10-15 18:22:00,55.0,52.0,30.14,SE,127,0.0,2.0,90,0.00,,,0.00,weatherlink.com 1.10,2013-10-15 22:22:00,
2013-10-15 18:37:00,54.5,52.0,30.13,ENE,67,0.0,2.0,90,0.00,,,0.00,weatherlink.com 1.10,2013-10-15 22:37:00,
2013-10-15 18:52:00,53.6,51.0,30.13,East,101,1.0,2.0,91,0.00,,,0.00,weatherlink.com 1.10,2013-10-15 22:52:00,
2013-10-15 19:07:00,53.0,51.0,30.13,ENE,76,2.0,2.0,92,0.00,,,0.00,weatherlink.com 1.10,2013-10-15 23:07:00,
2013-10-15 19:22:00,52.4,50.0,30.13,East,79,2.0,2.0,92,0.00,,,0.00,weatherlink.com 1.10,2013-10-15 23:22:00,
2013-10-15 19:37:00,52.2,50.0,30.13,ENE,72,2.0,2.0,93,0.00,,,0.00,weatherlink.com 1.10,2013-10-15 23:37:00,
2013-10-15 19:52:00,52.2,50.0,30.13,ENE,77,1.0,1.0,92,0.00,,,0.00,weatherlink.com 1.10,2013-10-15 23:52:00,
2013-10-15 20:07:00,52.3,50.0,30.13,ENE,76,1.0,1.0,92,0.00,,,0.00,weatherlink.com 1.10,2013-10-16 00:07:00,
2013-10-15 20:22:00,52.1,50.0,30.13,ENE,75,1.0,2.0,92,0.00,,,0.00,weatherlink.com 1.10,2013-10-16 00:22:00,
2013-10-15 20:37:00,51.8,50.0,30.12,East,79,1.0,2.0,93,0.00,,,0.00,weatherlink.com 1.10,2013-10-16 00:37:00,
2013-10-15 20:52:00,51.7,50.0,30.13,ENE,68,1.0,2.0,93,0.00,,,0.00,weatherlink.com 1.10,2013-10-16 00:52:00,
2013-10-15 21:07:00,52.6,50.0,30.13,ENE,63,2.0,2.0,92,0.00,,,0.00,weatherlink.com 1.10,2013-10-16 01:07:00,
2013-10-15 21:22:00,52.8,50.0,30.12,ENE,57,1.0,2.0,91,0.00,,,0.00,weatherlink.com 1.10,2013-10-16 01:22:00,
2013-10-15 21:37:00,52.0,50.0,30.12,ENE,69,1.0,2.0,92,0.00,,,0.00,weatherlink.com 1.10,2013-10-16 01:37:00,
2013-10-15 21:52:00,52.2,50.0,30.12,East,79,1.0,4.0,92,0.00,,,0.00,weatherlink.com 1.10,2013-10-16 01:52:00,
2013-10-15 22:07:00,52.6,50.0,30.11,NE,41,3.0,3.0,91,0.00,,,0.00,weatherlink.com 1.10,2013-10-16 02:07:00,
2013-10-15 22:22:00,53.8,51.0,30.11,ENE,73,1.0,3.0,89,0.00,,,0.00,weatherlink.com 1.10,2013-10-16 02:22:00,
2013-10-15 22:37:00,55.4,52.0,30.11,NE,42,1.0,3.0,87,0.00,,,0.00,weatherlink.com 1.10,2013-10-16 02:37:00,
2013-10-15 22:52:00,55.9,52.0,30.11,NE,56,0.0,3.0,86,0.00,,,0.00,weatherlink.com 1.10,2013-10-16 02:52:00,
2013-10-15 23:07:00,56.7,52.0,30.11,ENE,72,1.0,3.0,84,0.00,,,0.00,weatherlink.com 1.10,2013-10-16 03:07:00,
2013-10-15 23:23:00,56.8,52.0,30.10,ENE,60,0.0,3.0,84,0.00,,,0.00,weatherlink.com 1.10,2013-10-16 03:23:00,
2013-10-15 23:38:00,56.8,52.0,30.09,WNW,295,0.0,2.0,84,0.00,,,0.00,weatherlink.com 1.10,2013-10-16 03:38:00,
2013-10-15 23:53:00,56.8,52.0,30.09,SE,128,3.0,6.0,84,0.00,,,0.00,weatherlink.com 1.10,2013-10-16 03:53:00,